Terminal Aerodrome Forecast
Issued by NWS

Home | Current Version | Previous Version | Text Only | Print | Product List | Glossary On
Versions: 1 2 3 4 5 6 7 8 9 10 11 12 13 14 15 16
197
FTUS41 KAKQ 221924 AAA
TAFPHF
TAF AMD
KPHF 221924Z 2219/2318 09012KT P6SM BKN200
     FM230300 11003KT P6SM BKN200
     FM231400 11012G20KT P6SM BKN150=

USA.gov is the U.S. government's official web portal to all federal, state and local government web resources and services.